Campanya meteocatpedra

Dades EMA Vallfogona de Balaguer

?
?
Resum diari 22:30 TU
Dades diàries de l'estació meteorològica
Temperatura mitjana 23.1 °C
Temperatura màxima 31.6 °C 16:53 TU
Temperatura mínima 13.1 °C 4:42 TU
Humitat relativa mitjana 48%
Precipitació acumulada 0.0 mm
Ratxa màxima del vent (2 m) 19.1 km/h - 251º 11:03 TU
Irradiació solar global 28.7 MJ/m2

El tram horari està expressat en Temps Universal (TU). Cal sumar una hora en horari d'hivern i dues en horari d'estiu per passar a l'hora oficial.

Vallfogona de Balaguer

Metadades estació meteorol´gica
Municipi Vallfogona de Balaguer
Comarca Noguera
Altitud 238 m
Data alta 17.10.1990
Estat actual Operativa
Dades de període
Període
TU
TM
°C
TX
°C
TN
°C
HRM
%
PPT
mm
VVM (2 m)
km/h
DVM (2 m)
graus
VVX (2 m)
km/h
RS
W/m2
00:00 - 00:30 17.3 18.3 15.9 64 0.0 2.9 359 6.8 0
00:30 - 01:00 15.8 16.0 15.6 74 0.0 2.5 359 6.5 0
01:00 - 01:30 15.6 15.7 15.4 75 0.0 3.6 352 6.8 0
01:30 - 02:00 15.1 15.4 14.9 77 0.0 3.2 360 6.1 0
02:00 - 02:30 14.8 15.0 14.5 79 0.0 1.8 144 4.0 0
02:30 - 03:00 14.3 14.5 14.0 83 0.0 0.7 5 2.9 0
03:00 - 03:30 13.9 14.0 13.7 84 0.0 2.5 8 5.4 0
03:30 - 04:00 13.7 13.8 13.4 84 0.0 3.2 8 6.1 0
04:00 - 04:30 13.7 14.0 13.2 83 0.0 3.2 353 6.8 0
04:30 - 05:00 13.4 13.9 13.1 84 0.0 2.9 351 5.4 12
05:00 - 05:30 14.5 15.3 14.0 80 0.0 2.9 345 6.5 40
05:30 - 06:00 15.7 16.1 15.3 76 0.0 2.2 329 5.4 48
06:00 - 06:30 16.7 17.4 16.1 73 0.0 1.4 290 3.2 86
06:30 - 07:00 19.0 20.7 17.4 65 0.0 1.8 236 5.8 327
07:00 - 07:30 21.3 22.1 20.6 57 0.0 2.5 176 7.2 425
07:30 - 08:00 22.4 23.0 21.3 55 0.0 4.0 175 7.6 514
08:00 - 08:30 23.3 24.1 23.0 51 0.0 3.6 201 8.6 598
08:30 - 09:00 24.5 25.3 24.2 46 0.0 4.3 211 9.4 676
09:00 - 09:30 25.9 26.3 25.2 40 0.0 5.4 243 10.4 746
09:30 - 10:00 26.5 27.4 26.0 34 0.0 6.8 229 15.8 814
10:00 - 10:30 27.4 27.9 27.0 30 0.0 7.6 231 14.8 864
10:30 - 11:00 28.0 28.6 27.4 28 0.0 8.3 232 17.3 901
11:00 - 11:30 28.7 29.1 28.4 27 0.0 9.0 243 19.1 928
11:30 - 12:00 29.1 29.5 28.7 27 0.0 6.5 213 15.1 937
12:00 - 12:30 29.5 29.9 29.1 26 0.0 8.3 234 17.3 936
12:30 - 13:00 29.8 30.1 29.6 25 0.0 8.3 228 18.4 923
13:00 - 13:30 30.3 30.6 30.0 25 0.0 6.1 228 15.5 898
13:30 - 14:00 30.4 30.5 30.2 25 0.0 7.2 249 16.9 862
14:00 - 14:30 30.7 30.9 30.4 25 0.0 7.9 230 15.1 813
14:30 - 15:00 30.9 31.2 30.5 25 0.0 6.1 218 15.5 750
15:00 - 15:30 31.2 31.5 31.1 24 0.0 5.0 228 13.3 673
15:30 - 16:00 31.3 31.5 31.1 24 0.0 4.7 261 12.2 590
16:00 - 16:30 31.4 31.5 31.2 24 0.0 4.3 188 9.4 502
16:30 - 17:00 31.3 31.6 30.9 23 0.0 4.7 247 10.1 411
17:00 - 17:30 31.0 31.4 30.7 24 0.0 4.3 239 10.1 314
17:30 - 18:00 29.8 30.7 28.6 26 0.0 6.5 223 14.8 219
18:00 - 18:30 28.2 28.6 27.7 28 0.0 7.2 225 16.2 130
18:30 - 19:00 27.0 27.7 26.0 30 0.0 3.6 204 11.2 36
19:00 - 19:30 24.9 25.8 24.1 37 0.0 1.1 138 3.6 3
19:30 - 20:00 23.4 24.1 22.7 42 0.0 0.7 70 6.5 0
20:00 - 20:30 22.3 22.6 22.2 45 0.0 1.8 133 7.2 0
20:30 - 21:00 22.4 22.7 21.3 42 0.0 3.2 107 6.8 0
21:00 - 21:30 19.8 21.1 19.2 56 0.0 3.2 355 7.2 0
21:30 - 22:00 19.5 20.0 19.1 53 0.0 1.8 328 5.4 0
22:00 - 22:30 18.3 19.2 17.9 59 0.0 3.6 339 7.6 0
22:30 - 23:00 17.9 18.1 17.6 59 0.0 1.8 309 4.7 0

Les dades en taronja només han passat un control de qualitat automàtic. Resta pendent la seva validació definitiva.